Earlston, United Kingdom
Current Conditions -  °F | °C
As of 10:20 AM on Thursday 29 Jan 2015 (Local Time) from EGPH Reporting Station
Few Clouds Few Clouds  
Wind Chill: 23°   Ceiling: Unl
Heat Index: 32°   Visibility: 6mi
Dew Point: 28°   Wind: 12mph
Humidity: 87%   Direction: 250°WSW
Pressure: 28.76"   Gusts: NA
Location:  55.64°N, 2.67°W
Report Text: EGPH 291020Z 25010KT 9999 FEW018 00/M02 Q0974
Loading
Personal Weather Stations






























Interactive Weather Map New forecast layout! Learn more

10-Day Weather Forecast

Advertisements
Track Severe Weather on mobile